createdAt,value
2022-11-04T00:01:27.419Z,56.10
2022-11-04T00:03:56.856Z,55.86
2022-11-04T00:06:25.554Z,56.24
2022-11-04T00:08:55.387Z,56.11
2022-11-04T00:11:41.355Z,55.84
2022-11-04T00:14:10.685Z,55.92
2022-11-04T00:16:56.057Z,55.87
2022-11-04T00:19:25.881Z,56.04
2022-11-04T00:22:11.717Z,56.14
2022-11-04T00:24:56.848Z,55.78
2022-11-04T00:27:42.408Z,55.91
2022-11-04T00:30:12.205Z,56.07
2022-11-04T00:32:57.383Z,55.92
2022-11-04T00:35:26.721Z,55.82
2022-11-04T00:37:54.652Z,55.87
2022-11-04T00:40:22.708Z,55.79
2022-11-04T00:42:50.617Z,55.76
2022-11-04T00:45:18.647Z,55.81
2022-11-04T00:47:46.637Z,56.07
2022-11-04T00:50:14.608Z,55.95
2022-11-04T00:52:43.913Z,55.75
2022-11-04T00:55:12.071Z,55.86
2022-11-04T00:57:40.065Z,55.95
2022-11-04T01:00:09.702Z,55.86
2022-11-04T01:02:37.760Z,55.83
2022-11-04T01:05:06.727Z,55.68
2022-11-04T01:07:37.349Z,55.60
2022-11-04T01:10:10.664Z,55.79
2022-11-04T01:12:38.594Z,55.68
2022-11-04T01:15:07.521Z,55.60
2022-11-04T01:17:35.507Z,55.60
2022-11-04T01:20:03.915Z,55.70
2022-11-04T01:22:31.999Z,55.96
2022-11-04T01:24:59.979Z,55.54
2022-11-04T01:27:29.291Z,55.47
2022-11-04T01:29:57.209Z,55.86
2022-11-04T01:32:25.327Z,55.53
2022-11-04T01:34:53.340Z,55.61
2022-11-04T01:37:21.309Z,55.68
2022-11-04T01:39:49.208Z,55.71
2022-11-04T01:42:17.150Z,55.61
2022-11-04T01:44:51.810Z,55.40
2022-11-04T01:47:23.351Z,55.34
2022-11-04T01:49:56.209Z,55.57
2022-11-04T01:52:29.563Z,55.58
2022-11-04T01:55:00.832Z,55.36
2022-11-04T01:57:35.008Z,55.56
2022-11-04T02:00:08.675Z,55.58
2022-11-04T02:02:41.535Z,55.74
2022-11-04T02:05:09.721Z,55.40
2022-11-04T02:07:37.834Z,55.48
2022-11-04T02:10:08.000Z,55.58
2022-11-04T02:12:49.745Z,55.55
2022-11-04T02:15:25.315Z,55.17
2022-11-04T02:18:11.348Z,55.00
2022-11-04T02:21:10.556Z,54.83
2022-11-04T02:23:59.495Z,55.00
2022-11-04T02:27:06.101Z,54.98
2022-11-04T02:29:52.051Z,54.80
2022-11-04T02:32:28.470Z,55.17
2022-11-04T02:35:05.024Z,55.15
2022-11-04T02:37:48.646Z,55.14
2022-11-04T02:40:28.562Z,55.22
2022-11-04T02:43:01.377Z,55.08
2022-11-04T02:45:38.992Z,55.34
2022-11-04T02:48:13.060Z,55.41
2022-11-04T02:50:46.987Z,55.12
2022-11-04T02:53:20.838Z,55.34
2022-11-04T02:55:52.615Z,55.25
2022-11-04T02:58:25.503Z,55.35
2022-11-04T03:00:57.078Z,55.43
2022-11-04T03:03:30.059Z,55.30
2022-11-04T03:05:59.538Z,55.10
2022-11-04T03:08:36.083Z,55.15
2022-11-04T03:11:10.197Z,55.12
2022-11-04T03:13:42.459Z,55.26
2022-11-04T03:16:16.835Z,55.04
2022-11-04T03:18:56.581Z,55.02
2022-11-04T03:21:27.398Z,55.11
2022-11-04T03:23:56.094Z,55.20
2022-11-04T03:26:30.250Z,55.42
2022-11-04T03:29:11.300Z,54.95
2022-11-04T03:31:46.402Z,54.94
2022-11-04T03:34:14.434Z,55.00
2022-11-04T03:36:42.481Z,54.94
2022-11-04T03:39:10.805Z,55.17
2022-11-04T03:41:44.950Z,54.95
2022-11-04T03:44:12.960Z,55.18
2022-11-04T03:46:42.576Z,54.97
2022-11-04T03:49:11.892Z,55.22
2022-11-04T03:51:39.813Z,55.29
2022-11-04T03:54:09.481Z,55.16
2022-11-04T03:57:00.884Z,54.80
2022-11-04T03:59:47.267Z,54.97
2022-11-04T04:02:20.220Z,54.85
2022-11-04T04:04:57.491Z,54.84
2022-11-04T04:07:33.110Z,55.13
2022-11-04T04:10:29.424Z,54.93
2022-11-04T04:13:01.849Z,55.02
2022-11-04T04:15:36.033Z,55.15
2022-11-04T04:18:10.852Z,54.96
2022-11-04T04:20:41.903Z,55.05
2022-11-04T04:23:33.985Z,54.96
2022-11-04T04:26:23.589Z,54.99
2022-11-04T04:28:52.903Z,55.15
2022-11-04T04:31:36.628Z,54.95
2022-11-04T04:34:06.486Z,55.14
2022-11-04T04:36:38.957Z,54.91
2022-11-04T04:39:28.228Z,55.17
2022-11-04T04:42:14.080Z,55.01
2022-11-04T04:45:02.281Z,54.93
2022-11-04T04:47:42.384Z,54.73
2022-11-04T04:50:14.545Z,55.19
2022-11-04T04:52:44.275Z,54.88
2022-11-04T04:55:12.951Z,54.86
2022-11-04T04:57:41.007Z,55.07
2022-11-04T05:00:13.184Z,55.12
2022-11-04T05:02:41.247Z,55.00
2022-11-04T05:05:12.967Z,55.10
2022-11-04T05:07:41.429Z,55.00
2022-11-04T05:10:10.753Z,54.90
2022-11-04T05:12:56.591Z,55.07
2022-11-04T05:15:24.663Z,54.83
2022-11-04T05:17:55.706Z,54.98
2022-11-04T05:20:25.628Z,54.83
2022-11-04T05:22:53.652Z,54.71
2022-11-04T05:25:21.643Z,54.76
2022-11-04T05:27:49.560Z,54.89
2022-11-04T05:30:18.340Z,54.83
2022-11-04T05:32:46.363Z,54.74
2022-11-04T05:35:14.334Z,55.03
2022-11-04T05:37:43.646Z,54.71
2022-11-04T05:40:12.830Z,54.97
2022-11-04T05:42:40.842Z,54.71
2022-11-04T05:45:10.086Z,54.95
2022-11-04T05:47:38.172Z,54.87
2022-11-04T05:50:06.942Z,54.74
2022-11-04T05:52:34.987Z,54.85
2022-11-04T05:55:04.518Z,54.86
2022-11-04T05:57:32.482Z,54.71
2022-11-04T06:00:00.475Z,54.64
2022-11-04T06:02:28.450Z,54.87
2022-11-04T06:04:56.500Z,54.77
2022-11-04T06:07:24.432Z,54.82
2022-11-04T06:09:52.408Z,54.80
2022-11-04T06:12:21.736Z,54.71
2022-11-04T06:14:49.724Z,54.81
2022-11-04T06:17:19.505Z,54.45
2022-11-04T06:19:47.888Z,54.93
2022-11-04T06:22:17.672Z,54.80
2022-11-04T06:24:45.689Z,54.69
2022-11-04T06:27:13.891Z,54.70
2022-11-04T06:29:43.451Z,54.81
2022-11-04T06:32:13.711Z,54.66
2022-11-04T06:34:42.273Z,54.81
2022-11-04T06:37:10.549Z,54.62
2022-11-04T06:39:38.987Z,54.69
2022-11-04T06:42:07.283Z,54.76
2022-11-04T06:44:35.627Z,54.47
2022-11-04T06:47:05.036Z,54.72
2022-11-04T06:49:33.047Z,54.56
2022-11-04T06:52:02.635Z,54.67
2022-11-04T06:54:30.569Z,54.72
2022-11-04T06:56:58.571Z,54.46
2022-11-04T06:59:26.554Z,54.43
2022-11-04T07:01:54.613Z,54.67
2022-11-04T07:04:24.027Z,54.66
2022-11-04T07:06:51.952Z,54.41
2022-11-04T07:09:19.877Z,54.54
2022-11-04T07:11:47.850Z,54.58
2022-11-04T07:14:15.824Z,54.58
2022-11-04T07:16:43.878Z,54.39
2022-11-04T07:19:11.818Z,54.61
2022-11-04T07:21:41.148Z,54.50
2022-11-04T07:24:09.374Z,54.44
2022-11-04T07:26:37.315Z,54.54
2022-11-04T07:29:06.873Z,54.54
2022-11-04T07:31:35.000Z,54.46
2022-11-04T07:34:03.275Z,54.32
2022-11-04T07:36:31.524Z,54.52
2022-11-04T07:39:01.182Z,54.32
2022-11-04T07:41:29.564Z,54.53
2022-11-04T07:43:58.997Z,54.30
2022-11-04T07:46:27.010Z,54.34
2022-11-04T07:48:58.737Z,54.52
2022-11-04T07:51:27.447Z,54.33
2022-11-04T07:53:56.381Z,54.41
2022-11-04T07:56:25.972Z,54.52
2022-11-04T07:58:54.423Z,54.37
2022-11-04T08:01:24.480Z,54.14
2022-11-04T08:03:53.147Z,54.26
2022-11-04T08:06:22.252Z,54.48
2022-11-04T08:08:50.333Z,54.51
2022-11-04T08:11:20.490Z,54.34
2022-11-04T08:13:50.247Z,54.28
2022-11-04T08:16:20.939Z,54.60
2022-11-04T08:18:51.569Z,54.46
2022-11-04T08:21:19.783Z,54.21
2022-11-04T08:23:48.271Z,54.49
2022-11-04T08:26:18.897Z,54.17
2022-11-04T08:28:47.746Z,54.45
2022-11-04T08:31:19.143Z,54.10
2022-11-04T08:33:47.905Z,54.44
2022-11-04T08:36:18.577Z,54.40
2022-11-04T08:38:47.133Z,54.37
2022-11-04T08:41:19.751Z,54.31
2022-11-04T08:43:48.507Z,54.20
2022-11-04T08:46:18.571Z,54.54
2022-11-04T08:48:47.444Z,54.45
2022-11-04T08:51:17.685Z,54.33
2022-11-04T08:53:45.861Z,54.56
2022-11-04T08:56:15.419Z,54.34
2022-11-04T08:58:43.517Z,54.49
2022-11-04T09:01:12.846Z,54.45
2022-11-04T09:03:43.586Z,54.50
2022-11-04T09:06:13.923Z,54.45
2022-11-04T09:08:43.482Z,54.50
2022-11-04T09:11:13.637Z,54.25
2022-11-04T09:13:42.272Z,54.49
2022-11-04T09:16:12.318Z,54.21
2022-11-04T09:18:42.118Z,54.50
2022-11-04T09:21:11.543Z,54.51
2022-11-04T09:23:39.996Z,54.28
2022-11-04T09:26:10.479Z,54.55
2022-11-04T09:28:38.438Z,54.48
2022-11-04T09:31:07.676Z,54.50
2022-11-04T09:33:35.616Z,54.28
2022-11-04T09:36:05.272Z,54.51
2022-11-04T09:38:33.506Z,54.56
2022-11-04T09:41:02.026Z,54.27
2022-11-04T09:43:42.844Z,54.12
2022-11-04T09:46:14.632Z,54.25
2022-11-04T09:48:46.782Z,54.19
2022-11-04T09:51:32.942Z,54.36
2022-11-04T09:54:17.103Z,54.15
2022-11-04T09:56:47.219Z,54.27
2022-11-04T09:59:20.692Z,54.24
2022-11-04T10:01:58.071Z,54.29
2022-11-04T10:04:34.919Z,54.49
2022-11-04T10:07:23.764Z,54.07
2022-11-04T10:10:01.547Z,54.30
2022-11-04T10:12:47.360Z,54.16
2022-11-04T10:15:36.665Z,54.30
2022-11-04T10:18:22.362Z,54.13
2022-11-04T10:21:01.635Z,54.28
2022-11-04T10:23:36.076Z,54.19
2022-11-04T10:26:12.513Z,54.30
2022-11-04T10:28:44.267Z,54.40
2022-11-04T10:31:16.666Z,54.36
2022-11-04T10:33:49.923Z,54.52
2022-11-04T10:36:18.983Z,54.41
2022-11-04T10:38:51.818Z,54.56
2022-11-04T10:41:27.696Z,54.52
2022-11-04T10:43:59.983Z,54.60
2022-11-04T10:46:43.631Z,54.29
2022-11-04T10:49:32.056Z,54.16
2022-11-04T10:52:00.166Z,54.45
2022-11-04T10:54:31.918Z,54.63
2022-11-04T10:56:59.939Z,54.59
2022-11-04T10:59:30.371Z,54.63
2022-11-04T11:01:59.980Z,54.39
2022-11-04T11:04:30.778Z,54.56
2022-11-04T11:07:00.704Z,54.59
2022-11-04T11:09:31.738Z,54.32
2022-11-04T11:12:02.212Z,54.46
2022-11-04T11:14:36.770Z,54.30
2022-11-04T11:17:25.825Z,54.01
2022-11-04T11:19:59.241Z,54.36
2022-11-04T11:22:37.448Z,54.52
2022-11-04T11:25:23.115Z,54.09
2022-11-04T11:27:53.660Z,54.59
2022-11-04T11:30:27.243Z,54.36
2022-11-04T11:32:58.915Z,54.58
2022-11-04T11:35:31.053Z,54.44
2022-11-04T11:37:59.878Z,54.37
2022-11-04T11:40:43.817Z,54.42
2022-11-04T11:43:28.542Z,54.35
2022-11-04T11:45:57.694Z,54.53
2022-11-04T11:48:34.480Z,54.29
2022-11-04T11:51:02.821Z,54.44
2022-11-04T11:53:34.259Z,54.38
2022-11-04T11:56:13.998Z,54.26
2022-11-04T12:01:40.825Z,54.64
2022-11-04T12:10:09.983Z,54.38
2022-11-04T12:13:11.600Z,54.40
2022-11-04T12:16:03.761Z,54.20
2022-11-04T12:18:56.523Z,54.17
2022-11-04T12:21:33.255Z,54.68
2022-11-04T12:24:08.346Z,54.41
2022-11-04T12:26:44.767Z,54.35
2022-11-04T12:29:42.234Z,54.30
2022-11-04T12:32:26.964Z,54.54
2022-11-04T12:35:18.836Z,54.54
2022-11-04T12:38:00.513Z,54.61
2022-11-04T12:40:30.582Z,54.64
2022-11-04T12:43:19.374Z,54.33
2022-11-04T12:46:00.979Z,54.43
2022-11-04T12:48:44.536Z,54.34
2022-11-04T12:51:21.680Z,54.46
2022-11-04T12:53:58.658Z,54.50
2022-11-04T12:56:37.620Z,54.59
2022-11-04T12:59:27.427Z,54.50
2022-11-04T13:02:02.733Z,54.46
2022-11-04T13:04:36.966Z,54.39
2022-11-04T13:07:09.717Z,54.43
2022-11-04T13:09:42.660Z,54.61
2022-11-04T13:12:15.214Z,54.65
2022-11-04T13:14:48.349Z,54.39
2022-11-04T13:17:25.722Z,54.42
2022-11-04T13:19:56.509Z,54.49
2022-11-04T13:22:26.917Z,54.56
2022-11-04T13:25:00.128Z,54.42
2022-11-04T13:27:33.285Z,54.63
2022-11-04T13:30:09.939Z,54.59
2022-11-04T13:32:48.700Z,54.45
2022-11-04T13:35:25.925Z,54.59
2022-11-04T13:37:58.961Z,54.48
2022-11-04T13:40:33.159Z,54.67
2022-11-04T13:43:40.309Z,54.36
2022-11-04T13:46:20.997Z,54.37
2022-11-04T13:49:03.469Z,54.41
2022-11-04T13:51:41.367Z,54.57
2022-11-04T13:54:25.824Z,54.42
2022-11-04T13:57:05.377Z,54.53
2022-11-04T13:59:34.228Z,54.50
2022-11-04T14:02:49.790Z,54.19
2022-11-04T14:05:57.371Z,54.31
2022-11-04T14:08:26.808Z,54.76
2022-11-04T14:11:10.413Z,54.51
2022-11-04T14:14:05.621Z,54.30
2022-11-04T14:16:46.748Z,54.45
2022-11-04T14:19:57.060Z,54.45
2022-11-04T14:22:34.382Z,54.41
2022-11-04T14:25:19.711Z,54.61
2022-11-04T14:27:50.068Z,54.73
2022-11-04T14:30:37.115Z,54.43
2022-11-04T14:33:07.947Z,54.52
2022-11-04T14:35:37.413Z,54.73
2022-11-04T14:38:25.784Z,54.28
2022-11-04T14:41:14.577Z,54.16
2022-11-04T14:43:45.818Z,54.48
2022-11-04T14:46:18.702Z,54.66
2022-11-04T14:48:52.230Z,54.49
2022-11-04T14:51:27.720Z,54.50
2022-11-04T14:54:04.960Z,54.76
2022-11-04T14:56:34.757Z,54.57
2022-11-04T14:59:05.548Z,54.65
2022-11-04T15:01:36.101Z,54.76
2022-11-04T15:04:19.527Z,54.58
2022-11-04T15:06:55.834Z,54.68
2022-11-04T15:09:26.057Z,54.55
2022-11-04T15:12:25.045Z,54.69
2022-11-04T15:14:53.556Z,54.57
2022-11-04T15:17:25.347Z,54.76
2022-11-04T15:19:56.156Z,54.48
2022-11-04T15:22:25.066Z,54.47
2022-11-04T15:24:54.052Z,54.75
2022-11-04T15:27:29.271Z,54.56
2022-11-04T15:29:58.391Z,54.66
2022-11-04T15:32:26.568Z,54.54
2022-11-04T15:34:55.467Z,54.60
2022-11-04T15:37:26.295Z,54.40
2022-11-04T15:39:56.594Z,54.77
2022-11-04T15:42:37.486Z,54.78
2022-11-04T15:45:27.130Z,54.44
2022-11-04T15:48:25.835Z,54.56
2022-11-04T15:51:22.770Z,54.43
2022-11-04T15:53:55.160Z,54.48
2022-11-04T15:56:26.036Z,54.75
2022-11-04T15:58:57.219Z,54.52
2022-11-04T16:01:26.370Z,54.69
2022-11-04T16:03:57.062Z,54.71
2022-11-04T16:06:37.493Z,54.53
2022-11-04T16:09:20.856Z,54.32
2022-11-04T16:12:12.865Z,54.40
2022-11-04T16:14:49.652Z,54.51
2022-11-04T16:17:17.802Z,54.82
2022-11-04T16:19:49.067Z,54.77
2022-11-04T16:22:22.355Z,54.68
2022-11-04T16:24:52.689Z,54.91
2022-11-04T16:27:23.348Z,54.56
2022-11-04T16:30:03.798Z,54.67
2022-11-04T16:32:41.128Z,54.68
2022-11-04T16:35:16.403Z,54.56
2022-11-04T16:37:44.385Z,54.67
2022-11-04T16:40:13.008Z,54.79
2022-11-04T16:42:41.104Z,54.60
2022-11-04T16:45:21.540Z,54.54
2022-11-04T16:47:49.486Z,54.74
2022-11-04T16:50:18.075Z,54.59
2022-11-04T16:52:46.407Z,54.67
2022-11-04T16:55:15.924Z,54.51
2022-11-04T16:57:44.551Z,54.66
2022-11-04T17:00:19.920Z,54.52
2022-11-04T17:02:47.952Z,54.61
2022-11-04T17:05:16.103Z,54.56
2022-11-04T17:07:53.766Z,54.49
2022-11-04T17:10:25.827Z,54.68
2022-11-04T17:12:53.973Z,54.56
2022-11-04T17:15:23.613Z,54.62
2022-11-04T17:17:51.603Z,54.55
2022-11-04T17:20:20.504Z,54.52
2022-11-04T17:22:49.035Z,54.56
2022-11-04T17:25:20.554Z,54.43
2022-11-04T17:27:48.662Z,54.74
2022-11-04T17:30:17.891Z,54.62
2022-11-04T17:32:47.917Z,54.60
2022-11-04T17:35:17.313Z,54.51
2022-11-04T17:37:45.671Z,54.69
2022-11-04T17:40:16.987Z,54.57
2022-11-04T17:43:06.942Z,54.46
2022-11-04T17:45:39.836Z,54.45
2022-11-04T17:48:10.344Z,54.56
2022-11-04T17:50:41.517Z,54.70
2022-11-04T17:53:09.810Z,54.43
2022-11-04T17:55:40.515Z,54.38
2022-11-04T17:58:08.726Z,54.52
2022-11-04T18:00:36.720Z,54.48
2022-11-04T18:03:06.947Z,54.63
2022-11-04T18:05:36.522Z,54.57
2022-11-04T18:08:04.636Z,54.67
2022-11-04T18:10:32.592Z,54.64
2022-11-04T18:12:59.553Z,54.59
2022-11-04T18:15:28.414Z,54.63
2022-11-04T18:17:57.343Z,54.43
2022-11-04T18:20:25.294Z,54.55
2022-11-04T18:22:54.713Z,54.54
2022-11-04T18:25:22.663Z,54.56
2022-11-04T18:27:50.647Z,54.65
2022-11-04T18:30:18.967Z,54.58
2022-11-04T18:32:47.020Z,54.61
2022-11-04T18:35:15.226Z,54.53
2022-11-04T18:37:47.300Z,54.49
2022-11-04T18:40:17.909Z,54.71
2022-11-04T18:42:45.834Z,54.38
2022-11-04T18:45:13.894Z,54.41
2022-11-04T18:47:41.881Z,54.75
2022-11-04T18:50:10.711Z,54.54
2022-11-04T18:52:38.769Z,54.31
2022-11-04T18:55:07.674Z,54.54
2022-11-04T18:57:37.561Z,54.42
2022-11-04T19:00:07.095Z,54.63
2022-11-04T19:02:35.344Z,54.47
2022-11-04T19:05:03.415Z,54.51
2022-11-04T19:07:31.497Z,54.56
2022-11-04T19:09:59.462Z,54.68
2022-11-04T19:12:44.885Z,54.40
2022-11-04T19:15:14.410Z,54.40
2022-11-04T19:17:42.411Z,54.44
2022-11-04T19:20:12.536Z,54.64
2022-11-04T19:22:41.424Z,54.68
2022-11-04T19:25:09.998Z,54.59
2022-11-04T19:27:37.977Z,54.69
2022-11-04T19:30:06.953Z,54.51
2022-11-04T19:32:36.356Z,54.59
2022-11-04T19:35:04.534Z,54.45
2022-11-04T19:37:33.462Z,54.35
2022-11-04T19:40:01.497Z,54.53
2022-11-04T19:42:47.041Z,54.67
2022-11-04T19:45:15.112Z,54.64
2022-11-04T19:47:44.468Z,54.65
2022-11-04T19:50:12.812Z,54.56
2022-11-04T19:52:40.774Z,54.44
2022-11-04T19:55:10.415Z,54.60
2022-11-04T19:57:39.298Z,54.53
2022-11-04T20:00:08.572Z,54.68
2022-11-04T20:02:36.645Z,54.59
2022-11-04T20:05:06.978Z,54.53
2022-11-04T20:07:35.024Z,54.66
2022-11-04T20:10:03.021Z,54.59
2022-11-04T20:12:48.269Z,54.42
2022-11-04T20:15:16.267Z,54.45
2022-11-04T20:17:44.203Z,54.49
2022-11-04T20:20:13.706Z,54.73
2022-11-04T20:22:41.802Z,54.32
2022-11-04T20:25:10.312Z,54.38
2022-11-04T20:27:38.966Z,54.35
2022-11-04T20:30:07.997Z,54.39
2022-11-04T20:32:36.154Z,54.56
2022-11-04T20:35:04.287Z,54.59
2022-11-04T20:37:33.599Z,54.39
2022-11-04T20:40:01.875Z,54.52
2022-11-04T20:42:30.002Z,54.50
2022-11-04T20:44:57.945Z,54.54
2022-11-04T20:47:25.891Z,54.48
2022-11-04T20:49:53.891Z,54.47
2022-11-04T20:52:22.290Z,54.56
2022-11-04T20:54:51.757Z,54.33
2022-11-04T20:57:19.746Z,54.37
2022-11-04T20:59:47.671Z,54.30
2022-11-04T21:02:15.803Z,54.55
2022-11-04T21:04:43.869Z,54.30
2022-11-04T21:07:11.951Z,54.37
2022-11-04T21:09:39.914Z,54.52
2022-11-04T21:12:09.482Z,54.33
2022-11-04T21:14:37.641Z,54.36
2022-11-04T21:17:06.607Z,54.69
2022-11-04T21:19:34.691Z,54.37
2022-11-04T21:22:02.766Z,54.48
2022-11-04T21:24:36.371Z,54.35
2022-11-04T21:27:07.017Z,54.43
2022-11-04T21:29:36.363Z,54.28
2022-11-04T21:32:04.396Z,54.31
2022-11-04T21:34:32.388Z,54.53
2022-11-04T21:37:00.295Z,54.41
2022-11-04T21:39:28.339Z,54.50
2022-11-04T21:41:56.345Z,54.47
2022-11-04T21:44:24.578Z,54.49
2022-11-04T21:46:55.651Z,54.43
2022-11-04T21:49:23.677Z,54.59
2022-11-04T21:51:51.609Z,54.59
2022-11-04T21:54:19.814Z,54.36
2022-11-04T21:56:47.761Z,54.49
2022-11-04T21:59:18.465Z,54.28
2022-11-04T22:01:46.870Z,54.22
2022-11-04T22:04:16.451Z,54.25
2022-11-04T22:06:45.544Z,54.23
2022-11-04T22:09:13.827Z,54.54
2022-11-04T22:11:41.928Z,54.39
2022-11-04T22:14:12.450Z,54.21
2022-11-04T22:16:40.916Z,54.31
2022-11-04T22:19:10.861Z,54.27
2022-11-04T22:21:42.233Z,54.15
2022-11-04T22:24:12.059Z,54.41
2022-11-04T22:26:40.532Z,54.18
2022-11-04T22:29:08.808Z,54.00
2022-11-04T22:31:38.816Z,54.22
2022-11-04T22:34:07.542Z,54.36
2022-11-04T22:36:35.584Z,54.20
2022-11-04T22:39:05.625Z,54.06
2022-11-04T22:41:34.518Z,54.27
2022-11-04T22:44:03.366Z,54.07
2022-11-04T22:46:33.028Z,54.17
2022-11-04T22:49:00.991Z,54.28
2022-11-04T22:51:29.831Z,54.19
2022-11-04T22:54:02.839Z,54.40
2022-11-04T22:56:35.973Z,54.04
2022-11-04T22:59:04.173Z,54.15
2022-11-04T23:01:33.966Z,54.05
2022-11-04T23:04:02.825Z,54.33
2022-11-04T23:06:31.079Z,54.30
2022-11-04T23:09:00.637Z,54.36
2022-11-04T23:11:48.019Z,54.35
2022-11-04T23:14:38.556Z,54.17
2022-11-04T23:17:38.310Z,54.08
2022-11-04T23:20:09.879Z,54.15
2022-11-04T23:22:55.505Z,54.34
2022-11-04T23:25:23.596Z,54.25
2022-11-04T23:28:22.001Z,54.13
2022-11-04T23:30:52.660Z,54.21
2022-11-04T23:33:40.825Z,54.07
2022-11-04T23:36:27.845Z,54.26
2022-11-04T23:38:55.868Z,54.42
2022-11-04T23:41:41.089Z,54.23
2022-11-04T23:44:29.234Z,54.18
2022-11-04T23:47:16.260Z,54.16
2022-11-04T23:50:01.345Z,54.34
2022-11-04T23:52:55.214Z,54.30
2022-11-04T23:55:40.824Z,54.27
2022-11-04T23:58:27.160Z,54.14
